Time;durP1;ratioP1;P1;durP2;ratioP2;P2;SDS_P1;SDS_P2;PMS_P1;PMS_P2;Temp;Humidity;BMP_temperature;BMP_pressure;BME280_temperature;BME280_humidity;BME280_pressure;Samples;Min_cycle;Max_cycle;Signal;HPM_P1;HPM_P2
2022/08/13 00:01:39;;;;;;;2.50;1.70;;;18.70;46.90;;;;;;5054519;28;20578;-71
2022/08/13 00:04:26;;;;;;;2.43;1.50;;;18.60;47.40;;;;;;5042522;28;20817;-72
2022/08/13 00:07:12;;;;;;;2.03;1.53;;;18.70;47.40;;;;;;5052402;28;20428;-72
2022/08/13 00:09:59;;;;;;;5.23;1.90;;;18.70;47.30;;;;;;5053993;28;20463;-71
2022/08/13 00:15:49;;;;;;;3.53;2.07;;;18.70;46.80;;;;;;5050443;28;20431;-72
2022/08/13 00:18:36;;;;;;;3.37;1.53;;;18.70;47.30;;;;;;5050707;28;20607;-72
2022/08/13 00:21:23;;;;;;;2.63;1.80;;;18.60;48.10;;;;;;5053696;28;20431;-72
2022/08/13 00:24:09;;;;;;;2.37;1.73;;;18.50;47.70;;;;;;5045796;28;20439;-71
2022/08/13 00:26:59;;;;;;;6.20;1.60;;;18.40;48.40;;;;;;5052268;28;20626;-71
2022/08/13 00:29:44;;;;;;;3.00;1.40;;;18.50;48.90;;;;;;5051266;28;20443;-72
2022/08/13 00:32:30;;;;;;;4.10;1.40;;;18.50;48.10;;;;;;5049892;28;20480;-72
2022/08/13 00:35:18;;;;;;;3.03;1.77;;;18.30;48.80;;;;;;5050032;28;20776;-72
2022/08/13 00:38:09;;;;;;;2.00;1.40;;;18.50;48.30;;;;;;5051102;28;20443;-71
2022/08/13 00:40:58;;;;;;;2.00;1.43;;;18.50;48.20;;;;;;5048624;28;20420;-71
2022/08/13 00:43:44;;;;;;;1.80;1.20;;;18.50;48.50;;;;;;5046980;28;20470;-71
2022/08/13 00:46:30;;;;;;;3.13;1.87;;;18.50;48.70;;;;;;5053371;28;20467;-71
2022/08/13 00:49:15;;;;;;;3.20;1.43;;;18.50;48.80;;;;;;5055729;28;20432;-71
2022/08/13 00:52:01;;;;;;;3.90;2.27;;;18.40;49.00;;;;;;5044895;28;20418;-71
2022/08/13 00:54:48;;;;;;;2.03;1.33;;;18.40;49.70;;;;;;5049324;28;20995;-71
2022/08/13 00:57:35;;;;;;;3.77;1.67;;;18.30;50.00;;;;;;5055737;28;20939;-71
2022/08/13 01:00:23;;;;;;;3.80;1.67;;;18.20;51.00;;;;;;5054666;28;20447;-72
2022/08/13 01:03:10;;;;;;;2.50;1.57;;;18.30;50.90;;;;;;5047087;28;20589;-71
2022/08/13 01:05:58;;;;;;;3.87;1.43;;;18.20;49.90;;;;;;5058235;28;20939;-72
2022/08/13 01:08:44;;;;;;;2.27;1.53;;;18.10;51.30;;;;;;5056406;28;20927;-71
2022/08/13 01:11:33;;;;;;;4.73;2.00;;;18.10;51.30;;;;;;5055001;28;20521;-72
2022/08/13 01:14:19;;;;;;;3.80;1.60;;;18.20;50.90;;;;;;5050448;28;20442;-71
2022/08/13 01:17:05;;;;;;;2.70;1.80;;;18.20;51.40;;;;;;5051347;28;20562;-72
2022/08/13 01:19:51;;;;;;;2.57;1.87;;;18.10;51.30;;;;;;5054213;28;20448;-71
2022/08/13 01:22:39;;;;;;;4.63;1.53;;;18.00;51.80;;;;;;5051334;28;20478;-72
2022/08/13 01:25:27;;;;;;;4.93;1.77;;;18.10;51.50;;;;;;5054074;28;20427;-72
2022/08/13 01:28:14;;;;;;;2.80;1.60;;;18.00;52.00;;;;;;5049549;28;20498;-72
2022/08/13 01:31:06;;;;;;;4.03;1.80;;;17.80;53.50;;;;;;5052609;28;20424;-71
2022/08/13 01:33:57;;;;;;;2.70;2.30;;;17.70;54.10;;;;;;5044556;28;20443;-71
2022/08/13 01:36:46;;;;;;;2.20;1.60;;;17.60;54.60;;;;;;5051325;28;20781;-71
2022/08/13 01:39:33;;;;;;;6.13;1.70;;;17.60;55.50;;;;;;5052642;28;20514;-72
2022/08/13 01:42:20;;;;;;;5.43;1.70;;;17.60;55.70;;;;;;5047227;28;20468;-72
2022/08/13 01:45:06;;;;;;;3.10;1.70;;;17.50;56.00;;;;;;5052899;28;20498;-72
2022/08/13 01:50:54;;;;;;;3.80;2.00;;;17.50;56.50;;;;;;5035577;28;20756;-72
2022/08/13 01:53:40;;;;;;;2.00;1.63;;;17.50;55.90;;;;;;5046345;28;20482;-72
2022/08/13 01:56:29;;;;;;;5.93;2.10;;;17.50;56.10;;;;;;5048299;28;20559;-72
2022/08/13 01:59:14;;;;;;;3.10;1.57;;;17.40;56.40;;;;;;5051343;28;20452;-71
2022/08/13 02:02:01;;;;;;;2.63;1.80;;;17.40;57.80;;;;;;5051664;28;20925;-72
2022/08/13 02:04:46;;;;;;;2.50;1.60;;;17.50;57.40;;;;;;5054543;28;20428;-72
2022/08/13 02:07:32;;;;;;;8.00;1.80;;;17.50;57.30;;;;;;5053907;28;20422;-72
2022/08/13 02:10:20;;;;;;;2.10;1.50;;;17.30;57.10;;;;;;5055782;28;20456;-72
2022/08/13 02:13:11;;;;;;;3.67;1.53;;;17.00;58.30;;;;;;5046107;28;20814;-72
2022/08/13 02:15:57;;;;;;;7.53;2.13;;;17.10;59.70;;;;;;5048341;28;20427;-72
2022/08/13 02:18:43;;;;;;;4.33;2.00;;;17.00;59.80;;;;;;5053313;28;20435;-71
2022/08/13 02:21:33;;;;;;;5.60;1.80;;;17.00;59.60;;;;;;5046663;28;20513;-72
2022/08/13 02:24:18;;;;;;;2.63;1.80;;;17.10;60.10;;;;;;5050099;28;20840;-72
2022/08/13 02:27:04;;;;;;;2.70;1.77;;;17.10;60.40;;;;;;5049878;28;20423;-72
2022/08/13 02:29:55;;;;;;;2.53;1.73;;;17.10;60.00;;;;;;5052161;28;20521;-72
2022/08/13 02:32:41;;;;;;;2.90;1.70;;;17.10;60.60;;;;;;5045215;28;20448;-72
2022/08/13 02:35:27;;;;;;;2.70;1.60;;;17.00;60.30;;;;;;5056051;28;20429;-72
2022/08/13 02:38:14;;;;;;;2.57;1.60;;;17.20;60.60;;;;;;5045971;28;21055;-72
2022/08/13 02:44:04;;;;;;;3.53;1.53;;;17.10;60.50;;;;;;5051275;28;20467;-72
2022/08/13 02:46:51;;;;;;;5.20;1.97;;;17.00;60.60;;;;;;5053548;28;20423;-71
2022/08/13 02:49:37;;;;;;;2.23;1.50;;;17.00;60.60;;;;;;5052604;28;20451;-72
2022/08/13 02:52:23;;;;;;;7.87;1.50;;;17.00;60.90;;;;;;5049873;28;20448;-71
2022/08/13 02:55:09;;;;;;;2.53;1.90;;;16.90;61.40;;;;;;5063609;28;20427;-71
2022/08/13 02:57:55;;;;;;;7.60;1.60;;;17.00;61.50;;;;;;5050914;28;20427;-71
2022/08/13 03:00:47;;;;;;;2.53;1.57;;;16.90;61.10;;;;;;5054362;28;20439;-72
2022/08/13 03:03:35;;;;;;;3.90;1.50;;;16.80;61.90;;;;;;5053522;28;20564;-71
2022/08/13 03:06:21;;;;;;;4.70;1.87;;;16.70;62.20;;;;;;5056126;28;20566;-72
2022/08/13 03:09:07;;;;;;;3.60;1.90;;;16.80;62.30;;;;;;5054827;28;20963;-71
2022/08/13 03:11:53;;;;;;;2.63;1.50;;;16.70;62.20;;;;;;5047752;28;20451;-72
2022/08/13 03:14:39;;;;;;;2.50;1.80;;;16.80;62.30;;;;;;5057356;28;21066;-71
2022/08/13 03:17:25;;;;;;;3.80;1.70;;;16.70;62.20;;;;;;5055521;28;20427;-71
2022/08/13 03:20:16;;;;;;;3.13;1.57;;;16.60;62.70;;;;;;5054515;28;21735;-72
2022/08/13 03:23:01;;;;;;;4.03;2.23;;;16.70;62.60;;;;;;5050668;28;20545;-71
2022/08/13 03:25:47;;;;;;;4.80;1.90;;;16.60;63.20;;;;;;5052916;28;20419;-71
2022/08/13 03:28:33;;;;;;;3.50;2.40;;;16.60;62.50;;;;;;5054243;28;20806;-71
2022/08/13 03:31:19;;;;;;;5.90;1.67;;;16.70;62.30;;;;;;5043017;28;20809;-72
2022/08/13 03:34:06;;;;;;;2.47;2.13;;;16.50;62.40;;;;;;5051574;28;20428;-72
2022/08/13 03:36:54;;;;;;;4.97;1.87;;;16.60;62.50;;;;;;5054833;28;20428;-72
2022/08/13 03:39:39;;;;;;;3.30;1.67;;;16.50;62.80;;;;;;5053488;28;20518;-71
2022/08/13 03:42:25;;;;;;;4.10;2.10;;;16.40;63.40;;;;;;5047930;28;20820;-71
2022/08/13 03:45:12;;;;;;;2.73;1.70;;;16.50;63.30;;;;;;5055749;28;20438;-72
2022/08/13 03:47:57;;;;;;;4.50;2.00;;;16.50;63.10;;;;;;5049970;28;20431;-71
2022/08/13 03:50:45;;;;;;;1.90;1.57;;;16.40;63.20;;;;;;5048229;28;20521;-72
2022/08/13 03:53:33;;;;;;;3.67;1.80;;;16.40;63.60;;;;;;5053170;28;20810;-71
2022/08/13 03:56:18;;;;;;;2.33;1.90;;;16.40;63.50;;;;;;5051184;28;20427;-72
2022/08/13 03:59:04;;;;;;;2.67;2.13;;;16.30;63.80;;;;;;5059874;28;21093;-72
2022/08/13 04:01:51;;;;;;;3.13;2.13;;;16.40;63.60;;;;;;5046191;28;20462;-71
2022/08/13 04:04:37;;;;;;;2.60;1.77;;;16.20;64.00;;;;;;5053369;28;20467;-71
2022/08/13 04:07:22;;;;;;;3.17;1.90;;;16.20;64.20;;;;;;5053436;28;20428;-71
2022/08/13 04:10:11;;;;;;;2.70;2.07;;;16.10;64.80;;;;;;5048540;28;20993;-72
2022/08/13 04:12:57;;;;;;;2.60;2.07;;;16.20;65.10;;;;;;5055221;28;20419;-71
2022/08/13 04:15:43;;;;;;;10.87;2.50;;;16.10;65.10;;;;;;5055964;28;20908;-71
2022/08/13 04:18:31;;;;;;;2.80;2.00;;;16.00;65.30;;;;;;5053762;28;20506;-71
2022/08/13 04:21:19;;;;;;;3.27;2.13;;;16.00;65.50;;;;;;5046695;28;20968;-71
2022/08/13 04:24:06;;;;;;;2.60;2.03;;;16.00;65.60;;;;;;5054252;28;20517;-72
2022/08/13 04:26:52;;;;;;;5.33;1.77;;;16.10;66.20;;;;;;5053728;28;20440;-71
2022/08/13 04:29:39;;;;;;;2.40;2.00;;;16.00;66.20;;;;;;5052412;28;20598;-71
2022/08/13 04:32:24;;;;;;;2.70;1.97;;;16.00;66.10;;;;;;5053361;28;20574;-71
2022/08/13 04:35:11;;;;;;;3.10;2.40;;;16.20;65.90;;;;;;5052954;28;20771;-71
2022/08/13 04:37:58;;;;;;;7.73;1.97;;;16.10;66.30;;;;;;5054338;28;20423;-71
2022/08/13 04:40:46;;;;;;;14.33;2.57;;;16.00;66.50;;;;;;5044611;28;20439;-72
2022/08/13 04:43:33;;;;;;;2.20;1.50;;;16.10;66.40;;;;;;5050791;28;20478;-71
2022/08/13 04:46:18;;;;;;;3.40;2.43;;;16.20;66.60;;;;;;5050438;28;20439;-71
2022/08/13 04:49:04;;;;;;;13.73;2.40;;;16.20;66.60;;;;;;5052457;28;20597;-71
2022/08/13 04:51:50;;;;;;;3.97;1.87;;;16.30;66.80;;;;;;5046424;28;20447;-71
2022/08/13 04:54:36;;;;;;;3.23;2.00;;;16.30;66.60;;;;;;5051014;28;20940;-71
2022/08/13 04:57:21;;;;;;;9.43;2.33;;;16.40;66.30;;;;;;5054078;28;20517;-72
2022/08/13 05:00:10;;;;;;;2.90;2.10;;;16.50;66.10;;;;;;5049673;28;20578;-72
2022/08/13 05:02:56;;;;;;;3.53;2.30;;;16.70;66.50;;;;;;5054968;28;20795;-72
2022/08/13 05:05:42;;;;;;;2.73;1.67;;;16.80;66.60;;;;;;5052296;28;20415;-71
2022/08/13 05:08:32;;;;;;;3.07;2.30;;;16.90;65.90;;;;;;5054215;28;20525;-72
2022/08/13 05:11:19;;;;;;;2.90;1.83;;;17.00;65.70;;;;;;5049717;28;20455;-72
2022/08/13 05:14:04;;;;;;;3.23;1.87;;;17.10;65.30;;;;;;5052963;28;20427;-71
2022/08/13 05:16:52;;;;;;;4.27;2.60;;;17.20;65.70;;;;;;5053761;28;20503;-72
2022/08/13 05:19:37;;;;;;;7.17;3.30;;;17.10;66.20;;;;;;5049877;28;20753;-72
2022/08/13 05:22:23;;;;;;;3.40;2.50;;;17.00;65.50;;;;;;5054106;28;20478;-72
2022/08/13 05:25:09;;;;;;;4.13;2.30;;;17.00;65.40;;;;;;5053302;28;20478;-72
2022/08/13 05:27:56;;;;;;;5.33;1.90;;;17.10;64.90;;;;;;5051819;28;20504;-72
2022/08/13 05:30:41;;;;;;;3.70;2.03;;;17.20;65.10;;;;;;5040500;28;20459;-72
2022/08/13 05:33:30;;;;;;;3.80;2.20;;;17.30;65.20;;;;;;5061235;28;20419;-72
2022/08/13 05:36:15;;;;;;;2.40;1.80;;;17.30;64.70;;;;;;5054038;28;20436;-72
2022/08/13 05:39:01;;;;;;;3.27;2.13;;;17.50;65.00;;;;;;5055355;28;20475;-72
2022/08/13 05:41:48;;;;;;;2.30;1.53;;;17.60;64.60;;;;;;5044781;28;20429;-72
2022/08/13 05:44:34;;;;;;;5.63;2.07;;;17.90;63.40;;;;;;5052578;28;20842;-71
2022/08/13 05:47:20;;;;;;;4.10;1.80;;;17.90;64.20;;;;;;5056044;28;20431;-72
2022/08/13 05:50:13;;;;;;;5.03;1.70;;;17.90;63.60;;;;;;5049440;28;20490;-72
2022/08/13 05:53:05;;;;;;;9.83;2.60;;;18.10;64.20;;;;;;5050678;28;20427;-72
2022/08/13 05:55:53;;;;;;;2.67;1.93;;;18.10;64.30;;;;;;5053764;28;20433;-72
2022/08/13 05:58:38;;;;;;;4.40;2.00;;;18.20;64.80;;;;;;5051877;28;20537;-72
2022/08/13 06:04:27;;;;;;;3.07;2.10;;;18.40;63.60;;;;;;5057630;28;20533;-72
2022/08/13 06:07:19;;;;;;;5.17;2.10;;;18.60;63.80;;;;;;5060625;28;20426;-72
2022/08/13 06:10:06;;;;;;;5.13;2.40;;;18.80;64.00;;;;;;5046671;28;20838;-72
2022/08/13 06:12:52;;;;;;;2.73;1.70;;;18.90;62.80;;;;;;5060801;28;20978;-72
2022/08/13 06:15:38;;;;;;;4.50;2.30;;;19.00;62.40;;;;;;5053605;28;20439;-72
2022/08/13 06:18:24;;;;;;;4.60;2.20;;;19.20;63.30;;;;;;5060803;28;20835;-72
2022/08/13 06:21:11;;;;;;;3.57;1.70;;;19.30;61.80;;;;;;5052501;28;20435;-72
2022/08/13 06:23:58;;;;;;;4.27;2.20;;;19.50;61.70;;;;;;5056224;28;20467;-72
2022/08/13 06:26:43;;;;;;;2.63;1.80;;;19.60;60.80;;;;;;5063202;28;20422;-72
2022/08/13 06:29:30;;;;;;;5.80;2.50;;;19.70;61.00;;;;;;5049635;28;21017;-72
2022/08/13 06:32:17;;;;;;;7.93;2.70;;;19.80;61.70;;;;;;5053758;28;20420;-72
2022/08/13 06:35:04;;;;;;;3.20;2.10;;;19.90;61.70;;;;;;5057653;28;20420;-71
2022/08/13 06:37:49;;;;;;;3.30;2.40;;;20.10;61.50;;;;;;5053484;28;20418;-72
2022/08/13 06:40:37;;;;;;;9.73;1.70;;;20.10;61.00;;;;;;5056994;28;20435;-72
2022/08/13 06:43:24;;;;;;;7.37;2.00;;;20.30;59.70;;;;;;5055803;28;20457;-71
2022/08/13 06:46:11;;;;;;;3.17;2.10;;;20.40;56.60;;;;;;5061446;28;20435;-72
2022/08/13 06:48:59;;;;;;;6.40;2.03;;;20.60;57.30;;;;;;5049742;28;20549;-72
2022/08/13 06:51:45;;;;;;;4.40;2.07;;;20.80;56.30;;;;;;5055089;28;20428;-71
2022/08/13 06:54:31;;;;;;;3.27;1.63;;;20.90;57.60;;;;;;5058304;28;20419;-72
2022/08/13 06:57:19;;;;;;;3.43;2.10;;;21.00;56.90;;;;;;5059406;28;20565;-72
2022/08/13 07:00:09;;;;;;;4.30;2.27;;;21.20;57.70;;;;;;5049414;28;20475;-72
2022/08/13 07:02:54;;;;;;;2.80;1.77;;;21.20;56.80;;;;;;5056441;28;20427;-72
2022/08/13 07:05:42;;;;;;;7.17;2.20;;;21.50;54.90;;;;;;5057790;28;20471;-71
2022/08/13 07:08:29;;;;;;;3.10;1.80;;;21.60;57.40;;;;;;5057783;28;20471;-72
2022/08/13 07:11:23;;;;;;;2.20;1.60;;;21.80;50.60;;;;;;5053959;28;20795;-72
2022/08/13 07:14:17;;;;;;;2.40;1.90;;;21.90;46.00;;;;;;5053640;28;20443;-73
2022/08/13 07:17:07;;;;;;;2.53;1.80;;;22.20;43.30;;;;;;5055939;28;20546;-72
2022/08/13 07:19:53;;;;;;;4.80;2.43;;;22.40;40.90;;;;;;5046732;28;20463;-72
2022/08/13 07:22:39;;;;;;;2.93;2.00;;;22.70;40.70;;;;;;5062485;28;20481;-72
2022/08/13 07:25:30;;;;;;;2.40;1.70;;;22.80;40.70;;;;;;5053559;28;20548;-72
2022/08/13 07:28:20;;;;;;;2.90;2.10;;;22.90;38.00;;;;;;5050800;28;21938;-72
2022/08/13 07:31:13;;;;;;;3.93;2.40;;;23.10;36.90;;;;;;5065297;28;20825;-72
2022/08/13 07:34:04;;;;;;;5.03;2.20;;;23.20;36.30;;;;;;5056782;28;20586;-72
2022/08/13 07:36:56;;;;;;;3.80;2.30;;;23.40;36.20;;;;;;5062441;28;20431;-72
2022/08/13 07:39:42;;;;;;;3.60;2.40;;;23.50;34.70;;;;;;5054866;28;20512;-72
2022/08/13 07:42:29;;;;;;;5.93;2.00;;;23.60;35.00;;;;;;5056105;28;20434;-73
2022/08/13 07:45:24;;;;;;;2.40;1.47;;;23.70;34.00;;;;;;5061873;28;20561;-72
2022/08/13 07:48:15;;;;;;;5.80;2.20;;;23.80;34.60;;;;;;5045420;28;20452;-72
2022/08/13 07:51:04;;;;;;;2.00;1.33;;;23.90;32.90;;;;;;5054559;28;20806;-72
2022/08/13 07:53:53;;;;;;;5.93;2.10;;;24.00;33.00;;;;;;5057943;28;20422;-72
2022/08/13 07:56:40;;;;;;;8.87;1.80;;;24.10;32.50;;;;;;5051059;28;20506;-72
2022/08/13 07:59:26;;;;;;;5.20;1.60;;;24.20;31.90;;;;;;5054485;28;20458;-72
2022/08/13 08:02:13;;;;;;;2.60;1.90;;;24.30;31.80;;;;;;5059470;28;20522;-73
2022/08/13 08:05:03;;;;;;;3.40;1.83;;;24.30;31.00;;;;;;5057055;28;20456;-72
2022/08/13 08:07:51;;;;;;;3.23;2.20;;;24.40;30.00;;;;;;5056153;28;20607;-72
2022/08/13 08:10:39;;;;;;;8.00;2.00;;;24.40;30.90;;;;;;5057225;28;20430;-72
2022/08/13 08:13:27;;;;;;;7.83;2.20;;;24.50;30.00;;;;;;5059639;28;20438;-72
2022/08/13 08:16:17;;;;;;;4.03;1.90;;;24.50;30.00;;;;;;5053928;28;20435;-72
2022/08/13 08:19:04;;;;;;;2.63;1.70;;;24.60;30.10;;;;;;5048253;28;20990;-72
2022/08/13 08:21:56;;;;;;;4.23;2.10;;;24.70;30.20;;;;;;5050089;28;20447;-72
2022/08/13 08:24:48;;;;;;;3.80;2.03;;;24.80;29.90;;;;;;5056086;28;20478;-72
2022/08/13 08:27:34;;;;;;;4.53;2.00;;;24.80;29.50;;;;;;5049345;28;20451;-72
2022/08/13 08:30:21;;;;;;;2.57;1.80;;;24.90;30.40;;;;;;5052529;28;20979;-73
2022/08/13 08:33:09;;;;;;;3.43;1.80;;;25.00;30.10;;;;;;5054689;28;20431;-73
2022/08/13 08:35:55;;;;;;;3.93;1.70;;;25.20;30.00;;;;;;5051020;28;20866;-72
2022/08/13 08:45:18;;;;;;;6.00;1.63;;;25.50;29.60;;;;;;5057448;28;20502;-72
2022/08/13 08:48:04;;;;;;;4.57;2.23;;;25.70;28.80;;;;;;5049457;28;20446;-72
2022/08/13 08:50:50;;;;;;;4.47;1.90;;;25.70;28.70;;;;;;5052937;28;20422;-72
2022/08/13 08:53:36;;;;;;;7.90;2.30;;;25.80;28.50;;;;;;5052636;28;20909;-72
2022/08/13 08:56:23;;;;;;;2.50;1.87;;;25.90;27.90;;;;;;5049270;28;20420;-72
2022/08/13 08:59:12;;;;;;;4.07;2.13;;;25.90;28.50;;;;;;5054110;28;20450;-72
2022/08/13 09:01:59;;;;;;;3.60;2.40;;;26.10;27.80;;;;;;5057903;28;20577;-72
2022/08/13 09:04:54;;;;;;;2.57;1.90;;;26.20;27.90;;;;;;5058202;28;20868;-72
2022/08/13 09:07:41;;;;;;;3.40;1.83;;;26.30;26.90;;;;;;5048879;28;20863;-72
2022/08/13 09:10:27;;;;;;;2.73;2.23;;;26.30;27.00;;;;;;5058446;28;20426;-72
2022/08/13 09:13:19;;;;;;;2.70;2.03;;;26.30;26.50;;;;;;5052073;28;20428;-72
2022/08/13 09:16:05;;;;;;;3.03;2.20;;;26.40;27.00;;;;;;5055040;28;20549;-72
2022/08/13 09:18:52;;;;;;;7.90;2.20;;;26.60;26.20;;;;;;5051211;28;21079;-72
2022/08/13 09:21:44;;;;;;;4.70;2.00;;;26.70;25.70;;;;;;5060952;28;20805;-72
2022/08/13 09:24:29;;;;;;;4.30;2.13;;;26.80;25.10;;;;;;5050841;28;20464;-72
2022/08/13 09:27:17;;;;;;;2.93;2.00;;;26.80;25.70;;;;;;5052357;28;21029;-72
2022/08/13 09:30:05;;;;;;;3.63;2.00;;;26.90;25.40;;;;;;5054374;28;20475;-72
2022/08/13 09:32:53;;;;;;;7.40;2.03;;;27.00;25.20;;;;;;5053024;28;20471;-72
2022/08/13 09:35:41;;;;;;;9.63;2.20;;;27.00;25.10;;;;;;5054201;28;20474;-72
2022/08/13 09:38:28;;;;;;;2.60;1.80;;;27.10;23.70;;;;;;5055561;28;20450;-73
2022/08/13 09:41:21;;;;;;;3.77;1.90;;;27.10;24.10;;;;;;5055668;28;20477;-73
2022/08/13 09:44:07;;;;;;;3.40;1.80;;;27.20;24.30;;;;;;5051725;28;20510;-72
2022/08/13 09:46:55;;;;;;;5.07;2.10;;;27.40;24.70;;;;;;5044757;28;20443;-72
2022/08/13 09:49:41;;;;;;;3.37;1.97;;;27.40;23.50;;;;;;5055218;28;20451;-72
2022/08/13 09:52:26;;;;;;;5.13;1.90;;;27.50;23.30;;;;;;5052855;28;20466;-72
2022/08/13 09:55:12;;;;;;;3.33;1.77;;;27.60;23.70;;;;;;5059649;28;20808;-72
2022/08/13 09:57:59;;;;;;;6.53;1.97;;;27.60;23.70;;;;;;5054846;28;20449;-72
2022/08/13 10:00:46;;;;;;;3.77;1.97;;;27.70;23.50;;;;;;5059024;28;20432;-72
2022/08/13 10:03:38;;;;;;;2.97;1.90;;;27.80;23.00;;;;;;5064501;28;20419;-72
2022/08/13 10:06:28;;;;;;;4.53;2.50;;;27.90;22.60;;;;;;5051983;28;20472;-72
2022/08/13 10:09:14;;;;;;;2.80;1.80;;;27.90;21.60;;;;;;5057413;28;20442;-72
2022/08/13 10:12:01;;;;;;;4.53;2.40;;;27.80;21.90;;;;;;5060368;28;20795;-72
2022/08/13 10:14:46;;;;;;;3.07;2.07;;;27.70;22.70;;;;;;5059781;28;20937;-72
2022/08/13 10:17:44;;;;;;;6.03;2.80;;;27.60;22.30;;;;;;5052593;28;20446;-72
2022/08/13 10:20:36;;;;;;;4.63;2.07;;;27.60;22.10;;;;;;5057315;28;20490;-72
2022/08/13 10:23:21;;;;;;;6.63;1.97;;;27.50;21.70;;;;;;5057027;28;20431;-72
2022/08/13 10:26:07;;;;;;;2.33;1.57;;;27.40;21.40;;;;;;5049602;28;20549;-72
2022/08/13 10:28:53;;;;;;;2.80;2.00;;;27.40;21.90;;;;;;5060074;28;21174;-72
2022/08/13 10:31:39;;;;;;;2.23;1.53;;;27.50;22.40;;;;;;5066452;28;20538;-73
2022/08/13 10:34:25;;;;;;;8.03;1.70;;;27.70;22.20;;;;;;5052441;28;20581;-72
2022/08/13 10:37:12;;;;;;;5.10;1.70;;;28.00;21.60;;;;;;5053657;28;20451;-72
2022/08/13 10:39:58;;;;;;;3.03;1.80;;;28.20;20.60;;;;;;5061251;28;20813;-73
2022/08/13 10:42:44;;;;;;;3.33;1.73;;;28.40;21.20;;;;;;5054476;28;20455;-72
2022/08/13 10:45:30;;;;;;;4.30;2.03;;;28.50;19.90;;;;;;5053678;28;20533;-72
2022/08/13 10:48:17;;;;;;;2.57;1.70;;;28.70;20.80;;;;;;5050168;28;20439;-72
2022/08/13 10:51:02;;;;;;;5.13;2.10;;;28.90;20.80;;;;;;5075592;22;20499;-71
2022/08/13 10:54:01;;;;;;;3.03;1.67;;;29.00;19.90;;;;;;5055087;28;20423;-71
2022/08/13 10:56:47;;;;;;;5.67;1.90;;;29.10;18.70;;;;;;5058619;28;20963;-71
2022/08/13 10:59:34;;;;;;;4.40;2.30;;;29.20;19.00;;;;;;5056873;28;20813;-71
2022/08/13 11:02:20;;;;;;;3.80;2.27;;;29.10;19.60;;;;;;5064334;28;20431;-71
2022/08/13 11:05:07;;;;;;;2.90;1.70;;;28.90;19.10;;;;;;5052340;28;20467;-71
2022/08/13 11:07:54;;;;;;;5.13;2.50;;;28.90;19.80;;;;;;5051538;28;20489;-71
2022/08/13 11:10:41;;;;;;;2.70;1.90;;;29.10;18.80;;;;;;5055668;28;20818;-71
2022/08/13 11:13:27;;;;;;;3.63;1.90;;;29.20;19.70;;;;;;5049635;28;20432;-71
2022/08/13 11:19:16;;;;;;;3.47;2.10;;;29.40;18.70;;;;;;5047681;28;20470;-71
2022/08/13 11:22:01;;;;;;;5.30;2.07;;;29.20;18.90;;;;;;5049817;28;20424;-71
2022/08/13 11:24:47;;;;;;;2.93;1.90;;;29.00;18.50;;;;;;5044894;28;20448;-71
2022/08/13 11:27:35;;;;;;;3.50;2.20;;;28.90;19.20;;;;;;5049320;28;20427;-70
2022/08/13 11:30:21;;;;;;;2.80;2.00;;;29.00;18.10;;;;;;5050919;28;20468;-70
2022/08/13 11:33:07;;;;;;;6.83;2.00;;;29.10;19.50;;;;;;5045313;28;20898;-70
2022/08/13 11:35:53;;;;;;;3.33;2.13;;;29.40;18.80;;;;;;5044112;28;20437;-71
2022/08/13 11:38:38;;;;;;;2.80;1.87;;;29.60;19.00;;;;;;5056462;28;20501;-70
2022/08/13 11:41:24;;;;;;;4.97;2.30;;;29.60;17.60;;;;;;5045216;28;20435;-71
2022/08/13 11:44:11;;;;;;;2.67;1.70;;;29.70;18.20;;;;;;5050959;28;20446;-71
2022/08/13 11:46:56;;;;;;;2.77;1.70;;;29.70;17.80;;;;;;5046174;28;20471;-71
2022/08/13 11:49:42;;;;;;;3.63;2.07;;;29.70;16.80;;;;;;5052843;28;20462;-71
2022/08/13 11:52:28;;;;;;;3.10;1.70;;;29.80;17.40;;;;;;5047057;28;20424;-71
2022/08/13 11:55:14;;;;;;;2.40;1.53;;;29.90;17.20;;;;;;5037165;28;20455;-71
2022/08/13 11:58:00;;;;;;;6.50;1.73;;;29.90;15.50;;;;;;5047318;28;20474;-71
2022/08/13 12:00:48;;;;;;;4.10;2.40;;;30.00;16.00;;;;;;5047450;28;20444;-71
2022/08/13 12:03:34;;;;;;;3.00;1.57;;;30.10;15.50;;;;;;5049024;28;20432;-71
2022/08/13 12:06:20;;;;;;;2.60;1.70;;;30.20;15.90;;;;;;5049973;28;20944;-71
2022/08/13 12:09:06;;;;;;;2.90;1.80;;;30.50;16.20;;;;;;5049431;28;20816;-71
2022/08/13 12:11:51;;;;;;;3.07;1.70;;;30.60;16.60;;;;;;5050876;28;20439;-71
2022/08/13 12:14:37;;;;;;;2.90;1.70;;;30.70;15.30;;;;;;5046321;28;20527;-71
2022/08/13 12:17:24;;;;;;;6.03;1.70;;;30.80;15.20;;;;;;5049101;28;20423;-71
2022/08/13 12:20:12;;;;;;;2.97;1.60;;;30.90;14.90;;;;;;5048978;28;20440;-71
2022/08/13 12:22:59;;;;;;;6.37;2.10;;;30.90;13.60;;;;;;5045865;28;20439;-71
2022/08/13 12:25:44;;;;;;;2.30;1.40;;;31.10;14.70;;;;;;5045386;28;20518;-71
2022/08/13 12:28:30;;;;;;;3.00;1.80;;;31.10;13.40;;;;;;5049159;28;20469;-71
2022/08/13 12:31:17;;;;;;;4.57;1.97;;;31.20;14.30;;;;;;5044789;28;20554;-71
2022/08/13 12:34:04;;;;;;;3.40;2.10;;;31.10;14.00;;;;;;5041098;28;20549;-71
2022/08/13 12:36:50;;;;;;;3.23;2.27;;;30.90;14.70;;;;;;5045566;28;20898;-71
2022/08/13 12:39:35;;;;;;;6.17;2.00;;;30.70;14.30;;;;;;5049120;28;20538;-71
2022/08/13 12:42:21;;;;;;;2.90;1.83;;;30.70;15.30;;;;;;5045254;28;20423;-71
2022/08/13 12:45:09;;;;;;;5.17;2.00;;;30.70;15.40;;;;;;5042328;28;20810;-70
2022/08/13 12:47:55;;;;;;;2.90;1.87;;;30.60;14.80;;;;;;5044897;28;20443;-71
2022/08/13 12:50:44;;;;;;;3.30;1.80;;;30.30;15.30;;;;;;5048341;28;20452;-72
2022/08/13 12:53:29;;;;;;;2.90;1.63;;;30.10;15.80;;;;;;5043772;28;20555;-71
2022/08/13 12:56:15;;;;;;;5.63;1.87;;;30.00;15.60;;;;;;5046472;28;20563;-71
2022/08/13 12:59:01;;;;;;;3.30;2.10;;;30.00;16.70;;;;;;5050865;28;20948;-71
2022/08/13 13:01:53;;;;;;;3.70;1.97;;;30.30;16.70;;;;;;5044976;28;20558;-71
2022/08/13 13:04:41;;;;;;;2.70;1.70;;;30.70;15.30;;;;;;5039984;28;20526;-71
2022/08/13 13:07:28;;;;;;;5.63;2.03;;;31.00;13.90;;;;;;5051030;28;20468;-71
2022/08/13 13:10:13;;;;;;;2.83;1.70;;;30.90;14.80;;;;;;5052724;28;20439;-71
2022/08/13 13:12:59;;;;;;;8.53;2.37;;;30.70;15.30;;;;;;5043169;28;20487;-71
2022/08/13 13:15:45;;;;;;;3.73;2.60;;;30.40;15.30;;;;;;5049602;28;20423;-71
2022/08/13 13:18:30;;;;;;;2.93;1.70;;;30.20;15.80;;;;;;5048821;28;20497;-70
2022/08/13 13:21:16;;;;;;;4.50;2.00;;;30.30;14.90;;;;;;5046753;28;20443;-71
2022/08/13 13:24:04;;;;;;;8.23;2.00;;;30.60;15.00;;;;;;5040602;28;20828;-72
2022/08/13 13:26:54;;;;;;;15.43;1.97;;;31.00;13.70;;;;;;5050223;28;20467;-71
2022/08/13 13:29:41;;;;;;;3.20;2.00;;;31.40;13.70;;;;;;5049327;28;20494;-70
2022/08/13 13:32:26;;;;;;;3.10;1.80;;;31.80;13.70;;;;;;5049623;28;20423;-71
2022/08/13 13:35:12;;;;;;;2.60;1.83;;;32.10;13.00;;;;;;5045145;28;20929;-70
2022/08/13 13:37:58;;;;;;;7.20;1.83;;;32.30;13.70;;;;;;5046149;28;20422;-71
2022/08/13 13:40:48;;;;;;;3.10;1.80;;;32.50;12.40;;;;;;5044285;28;20530;-71
2022/08/13 13:43:33;;;;;;;3.10;1.70;;;32.70;11.80;;;;;;5048255;28;20464;-71
2022/08/13 13:46:19;;;;;;;2.30;1.30;;;32.80;11.90;;;;;;5042414;28;20851;-71
2022/08/13 13:49:05;;;;;;;3.93;1.60;;;33.00;12.10;;;;;;5047317;28;20428;-71
2022/08/13 13:51:51;;;;;;;3.80;1.80;;;33.30;12.20;;;;;;5045747;28;20510;-71
2022/08/13 13:54:37;;;;;;;5.63;1.87;;;33.30;10.70;;;;;;5042752;28;20447;-72
2022/08/13 13:57:24;;;;;;;9.80;3.23;;;33.30;11.30;;;;;;5043801;28;20423;-71
2022/08/13 14:00:11;;;;;;;11.07;5.30;;;33.40;12.30;;;;;;5043889;28;20523;-71
2022/08/13 14:02:58;;;;;;;198.70;14.13;;;33.40;11.60;;;;;;5042801;28;20459;-72
2022/08/13 14:05:44;;;;;;;189.50;22.57;;;33.40;10.80;;;;;;5045685;28;20414;-72
2022/08/13 14:08:31;;;;;;;6.60;2.30;;;33.60;12.40;;;;;;5048326;28;20431;-71
2022/08/13 14:11:17;;;;;;;3.80;1.97;;;33.60;11.20;;;;;;5052014;28;20438;-70
2022/08/13 14:14:04;;;;;;;6.10;2.10;;;33.40;10.90;;;;;;5042067;28;20969;-71
2022/08/13 14:16:52;;;;;;;4.27;3.13;;;33.40;10.80;;;;;;5044434;28;20420;-71
2022/08/13 14:19:40;;;;;;;3.13;1.97;;;33.40;10.90;;;;;;5048529;28;21004;-71
2022/08/13 14:22:26;;;;;;;12.60;2.10;;;33.50;11.30;;;;;;5044227;28;20456;-71
2022/08/13 14:25:14;;;;;;;5.33;1.70;;;33.50;11.00;;;;;;5048285;28;20420;-71
2022/08/13 14:28:00;;;;;;;2.70;1.73;;;33.60;11.30;;;;;;5044884;28;20435;-71
2022/08/13 14:30:49;;;;;;;6.90;2.13;;;33.60;10.60;;;;;;5046942;28;20455;-71
2022/08/13 14:33:38;;;;;;;2.93;1.63;;;33.60;11.20;;;;;;5044742;28;20443;-71
2022/08/13 14:36:24;;;;;;;4.40;1.87;;;33.60;10.80;;;;;;5043351;28;20428;-71
2022/08/13 14:39:11;;;;;;;3.37;1.70;;;33.50;10.60;;;;;;5049068;28;20463;-71
2022/08/13 14:41:56;;;;;;;3.03;2.10;;;33.50;11.00;;;;;;5046846;28;20434;-72
2022/08/13 14:44:42;;;;;;;6.13;1.73;;;33.50;10.10;;;;;;5051515;28;21058;-71
2022/08/13 14:47:29;;;;;;;6.17;2.77;;;33.50;10.50;;;;;;5050107;28;20474;-71
2022/08/13 14:50:16;;;;;;;4.07;2.30;;;33.30;10.80;;;;;;5051449;28;20443;-71